Time;durP1;ratioP1;P1;durP2;ratioP2;P2;SDS_P1;SDS_P2;PMS_P1;PMS_P2;Temp;Humidity;BMP_temperature;BMP_pressure;BME280_temperature;BME280_humidity;BME280_pressure;Samples;Min_cycle;Max_cycle;Signal;HPM_P1;HPM_P2
2021/01/19 00:00:43;;;;;;;8.50;3.13;;;;;;;0.82;89.27;96784.16;5077414;28;20995;-84
2021/01/19 00:03:09;;;;;;;5.63;2.20;;;;;;;0.82;88.85;96773.53;5077230;28;20441;-84
2021/01/19 00:05:35;;;;;;;4.30;2.30;;;;;;;0.80;89.09;96767.97;5077293;28;20456;-84
2021/01/19 00:08:02;;;;;;;4.67;2.90;;;;;;;0.82;88.53;96776.94;5076438;28;20503;-85
2021/01/19 00:10:28;;;;;;;2.90;2.30;;;;;;;0.87;88.94;96778.22;5077093;28;20838;-84
2021/01/19 00:12:55;;;;;;;5.50;2.60;;;;;;;0.67;89.18;96778.94;5076439;28;20930;-84
2021/01/19 00:15:21;;;;;;;5.30;2.80;;;;;;;0.83;88.78;96777.66;5078381;28;20445;-84
2021/01/19 00:17:48;;;;;;;5.00;2.60;;;;;;;0.78;88.78;96778.34;5080799;28;20485;-84
2021/01/19 00:20:15;;;;;;;3.70;2.60;;;;;;;0.75;89.14;96777.31;5078174;28;20441;-84
2021/01/19 00:22:41;;;;;;;5.47;2.90;;;;;;;0.84;88.65;96776.47;5076899;28;20437;-84
2021/01/19 00:25:09;;;;;;;5.17;2.73;;;;;;;0.78;88.95;96776.44;5076358;28;20529;-84
2021/01/19 00:27:35;;;;;;;5.80;2.87;;;;;;;0.75;88.61;96773.97;5077057;28;20462;-84
2021/01/19 00:30:04;;;;;;;3.37;2.70;;;;;;;0.81;88.69;96769.44;5076515;28;20436;-84
2021/01/19 00:32:30;;;;;;;3.43;2.33;;;;;;;0.75;88.28;96772.00;5076574;28;20607;-84
2021/01/19 00:34:56;;;;;;;6.93;2.60;;;;;;;0.84;88.16;96763.94;5082967;28;20451;-84
2021/01/19 00:37:23;;;;;;;5.83;3.20;;;;;;;0.71;88.34;96762.81;5087653;28;20463;-84
2021/01/19 00:39:49;;;;;;;8.47;2.73;;;;;;;0.71;89.12;96766.19;5091409;28;20926;-84
2021/01/19 00:42:16;;;;;;;5.07;3.00;;;;;;;0.74;88.83;96770.56;5084136;28;20540;-84
2021/01/19 00:44:42;;;;;;;2.87;2.40;;;;;;;0.72;89.29;96764.28;5077719;28;20502;-84
2021/01/19 00:47:09;;;;;;;4.37;2.40;;;;;;;0.81;88.50;96762.22;5077555;28;20519;-84
2021/01/19 00:49:36;;;;;;;5.57;2.60;;;;;;;0.81;88.84;96764.88;5076511;28;20437;-84
2021/01/19 00:52:03;;;;;;;4.47;2.20;;;;;;;0.75;89.18;96761.41;5077306;28;20456;-84
2021/01/19 00:54:29;;;;;;;8.30;3.57;;;;;;;0.80;88.78;96746.72;5077146;28;20830;-85
2021/01/19 00:56:56;;;;;;;5.13;2.80;;;;;;;0.86;88.55;96753.56;5075692;28;20469;-85
2021/01/19 00:59:22;;;;;;;8.23;2.53;;;;;;;0.84;88.45;96745.34;5075518;28;20540;-84
2021/01/19 01:01:49;;;;;;;4.33;2.40;;;;;;;0.89;88.45;96747.34;5075741;28;20996;-85
2021/01/19 01:04:17;;;;;;;4.67;2.10;;;;;;;0.89;88.39;96749.25;5075399;28;20437;-84
2021/01/19 01:06:43;;;;;;;5.03;2.77;;;;;;;0.90;88.25;96743.50;5075446;28;20494;-84
2021/01/19 01:09:09;;;;;;;5.70;2.20;;;;;;;1.04;88.01;96745.31;5088788;28;20492;-85
2021/01/19 01:11:37;;;;;;;5.50;3.13;;;;;;;0.95;87.36;96747.38;5098782;28;20482;-87
2021/01/19 01:14:04;;;;;;;3.17;2.37;;;;;;;0.91;87.63;96738.88;5098728;28;20437;-86
2021/01/19 01:16:31;;;;;;;5.67;2.47;;;;;;;0.90;87.22;96740.84;5098785;28;20469;-86
2021/01/19 01:18:57;;;;;;;3.60;2.87;;;;;;;0.79;87.74;96737.31;5079378;28;20492;-84
2021/01/19 01:21:25;;;;;;;5.10;2.70;;;;;;;0.86;88.06;96739.56;5075649;28;20524;-84
2021/01/19 01:23:51;;;;;;;5.17;2.60;;;;;;;0.77;88.06;96742.34;5074729;28;20449;-84
2021/01/19 01:26:20;;;;;;;3.80;2.70;;;;;;;0.64;88.14;96739.28;5075669;28;20450;-85
2021/01/19 01:28:47;;;;;;;3.47;3.00;;;;;;;0.62;88.22;96731.06;5075937;28;20502;-85
2021/01/19 01:31:17;;;;;;;4.43;3.00;;;;;;;0.61;88.65;96729.59;5076412;28;20960;-84
2021/01/19 01:33:43;;;;;;;4.57;2.80;;;;;;;0.54;88.99;96730.72;5075022;28;20922;-84
2021/01/19 01:36:10;;;;;;;4.20;2.50;;;;;;;0.50;88.53;96725.59;5075639;28;20465;-84
2021/01/19 01:38:37;;;;;;;4.00;2.90;;;;;;;0.46;89.14;96725.09;5074951;28;20522;-85
2021/01/19 01:41:11;;;;;;;5.33;2.90;;;;;;;0.53;88.43;96721.31;5075846;28;20441;-84
2021/01/19 01:43:37;;;;;;;10.30;2.90;;;;;;;0.57;88.48;96732.44;5075218;28;20437;-84
2021/01/19 01:46:04;;;;;;;3.57;2.60;;;;;;;0.54;88.23;96736.03;5075928;28;20445;-84
2021/01/19 01:48:30;;;;;;;8.93;2.97;;;;;;;0.42;88.69;96729.13;5075539;28;20470;-84
2021/01/19 01:50:56;;;;;;;6.50;2.87;;;;;;;0.37;89.16;96724.50;5075732;28;20448;-84
2021/01/19 01:53:23;;;;;;;4.27;3.00;;;;;;;0.36;88.95;96715.78;5076488;28;20543;-84
2021/01/19 01:55:54;;;;;;;7.43;2.40;;;;;;;0.38;88.80;96708.09;5075972;28;20450;-84
2021/01/19 01:58:20;;;;;;;6.43;3.10;;;;;;;0.45;88.88;96697.09;5076046;28;20473;-84
2021/01/19 02:00:50;;;;;;;6.27;2.97;;;;;;;0.49;88.44;96694.25;5079844;28;20441;-83
2021/01/19 02:03:16;;;;;;;4.37;2.53;;;;;;;0.44;88.26;96689.56;5090021;28;20433;-81
2021/01/19 02:05:42;;;;;;;4.70;2.70;;;;;;;0.46;88.03;96682.63;5075951;28;20444;-83
2021/01/19 02:08:19;;;;;;;5.87;3.23;;;;;;;0.35;88.73;96671.13;5075119;28;20532;-84
2021/01/19 02:10:57;;;;;;;8.13;3.00;;;;;;;0.33;88.58;96678.84;5079073;28;20428;-84
2021/01/19 02:13:33;;;;;;;7.23;2.90;;;;;;;0.16;89.18;96668.00;5079017;28;20425;-84
2021/01/19 02:16:11;;;;;;;8.90;3.10;;;;;;;0.26;89.26;96664.03;5079148;28;20465;-84
2021/01/19 02:18:52;;;;;;;6.80;3.97;;;;;;;0.29;89.13;96665.03;5079191;28;20487;-84
2021/01/19 02:21:55;;;;;;;6.60;3.00;;;;;;;0.25;89.30;96656.56;5079156;28;20937;-83
2021/01/19 02:24:34;;;;;;;5.60;4.00;;;;;;;0.20;89.44;96649.25;5081344;28;20426;-84
2021/01/19 02:27:21;;;;;;;4.37;2.67;;;;;;;0.33;88.80;96641.69;5079082;28;20540;-84
2021/01/19 02:30:04;;;;;;;5.07;2.83;;;;;;;0.21;89.06;96629.50;5078430;28;20425;-84
2021/01/19 02:32:39;;;;;;;4.77;2.97;;;;;;;0.11;88.98;96633.44;5078835;28;20493;-84
2021/01/19 02:35:13;;;;;;;7.20;2.50;;;;;;;0.06;89.38;96629.56;5078873;28;20410;-84
2021/01/19 02:37:51;;;;;;;5.07;2.60;;;;;;;0.07;89.96;96638.94;5078454;28;20984;-85
2021/01/19 02:40:18;;;;;;;2.27;2.03;;;;;;;-0.01;89.99;96641.28;5078260;28;20437;-84
2021/01/19 02:42:54;;;;;;;5.13;3.40;;;;;;;0.06;90.05;96629.56;5079451;28;20437;-85
2021/01/19 02:45:21;;;;;;;4.33;2.90;;;;;;;0.06;89.84;96623.50;5079080;28;20831;-84
2021/01/19 02:47:48;;;;;;;7.33;3.70;;;;;;;0.04;89.62;96629.28;5077993;28;20469;-84
2021/01/19 02:50:15;;;;;;;2.57;2.37;;;;;;;0.01;90.11;96630.19;5078226;28;20536;-84
2021/01/19 02:52:43;;;;;;;5.10;3.10;;;;;;;0.02;89.84;96622.97;5078859;28;20433;-84
2021/01/19 02:55:12;;;;;;;4.53;2.70;;;;;;;0.10;89.78;96624.03;5080614;28;20483;-84
2021/01/19 02:58:04;;;;;;;5.20;2.70;;;;;;;0.12;89.68;96627.69;5100915;28;20458;-85
2021/01/19 03:00:40;;;;;;;4.80;2.57;;;;;;;0.19;89.56;96629.22;5100885;28;20441;-86
2021/01/19 03:03:10;;;;;;;7.10;3.13;;;;;;;0.07;89.40;96630.25;5090173;28;20947;-84
2021/01/19 03:05:39;;;;;;;4.70;2.90;;;;;;;0.00;90.18;96621.50;5077105;28;20892;-85
2021/01/19 03:08:07;;;;;;;6.00;2.80;;;;;;;0.06;89.90;96624.25;5077296;28;20444;-84
2021/01/19 03:10:35;;;;;;;6.70;2.97;;;;;;;0.18;89.67;96630.41;5076554;28;20426;-85
2021/01/19 03:13:02;;;;;;;8.00;2.87;;;;;;;0.23;89.57;96633.13;5077462;28;20433;-85
2021/01/19 03:15:29;;;;;;;7.93;3.00;;;;;;;0.21;89.34;96624.91;5077108;28;20449;-83
2021/01/19 03:17:56;;;;;;;3.80;2.27;;;;;;;0.28;89.02;96621.13;5077290;28;20481;-84
2021/01/19 03:20:25;;;;;;;5.60;2.53;;;;;;;0.28;89.21;96619.19;5076334;28;20444;-84
2021/01/19 03:22:51;;;;;;;2.77;2.57;;;;;;;0.37;88.95;96619.09;5077198;28;20482;-84
2021/01/19 03:25:18;;;;;;;4.57;2.37;;;;;;;0.40;88.73;96623.47;5077429;28;20449;-84
2021/01/19 03:27:44;;;;;;;10.07;3.03;;;;;;;0.40;88.57;96626.09;5077506;28;20536;-84
2021/01/19 03:44:07;;;;;;;4.63;2.10;;;;;;;0.64;87.23;96617.19;5077510;28;20397;-84
2021/01/19 03:46:33;;;;;;;3.40;2.23;;;;;;;0.67;87.57;96610.94;5077064;28;20995;-84
2021/01/19 03:49:00;;;;;;;8.60;2.43;;;;;;;0.61;87.34;96608.22;5077732;28;20433;-84
2021/01/19 03:51:26;;;;;;;2.67;2.30;;;;;;;0.65;87.74;96606.09;5077006;28;20524;-84
2021/01/19 03:53:53;;;;;;;9.93;2.80;;;;;;;0.82;86.67;96606.25;5077442;28;20852;-85
2021/01/19 03:56:20;;;;;;;3.00;2.00;;;;;;;0.78;86.74;96606.47;5077028;28;20469;-83
2021/01/19 03:58:47;;;;;;;2.27;2.00;;;;;;;0.74;87.02;96600.63;5077081;28;20485;-83
2021/01/19 04:01:14;;;;;;;6.83;2.50;;;;;;;0.70;86.87;96600.09;5076999;28;20437;-83
2021/01/19 04:03:41;;;;;;;7.60;2.40;;;;;;;0.80;86.62;96590.81;5077030;28;20434;-83
2021/01/19 04:06:08;;;;;;;5.87;2.40;;;;;;;0.73;87.10;96585.16;5087537;28;20420;-84
2021/01/19 04:08:35;;;;;;;4.70;2.13;;;;;;;0.70;87.20;96589.50;5099652;28;20436;-84
2021/01/19 04:14:23;;;;;;;2.43;2.07;;;;;;;0.87;86.25;96579.75;5097977;28;20499;-84
2021/01/19 04:16:51;;;;;;;2.57;2.10;;;;;;;0.79;86.42;96581.38;5075009;28;20465;-83
2021/01/19 04:19:17;;;;;;;4.67;2.20;;;;;;;0.80;86.36;96572.22;5075667;28;20499;-85
2021/01/19 04:21:43;;;;;;;3.30;2.60;;;;;;;0.79;86.25;96570.75;5075744;28;20449;-84
2021/01/19 04:24:10;;;;;;;3.33;2.30;;;;;;;0.73;86.50;96567.31;5075774;28;20430;-84
2021/01/19 04:26:36;;;;;;;5.03;2.23;;;;;;;0.71;86.23;96561.75;5076040;28;20545;-84
2021/01/19 04:29:03;;;;;;;4.03;2.47;;;;;;;0.69;86.74;96563.44;5077817;28;20464;-84
2021/01/19 04:31:29;;;;;;;4.00;2.50;;;;;;;0.56;86.63;96563.78;5077982;28;20520;-84
2021/01/19 04:33:57;;;;;;;4.43;2.87;;;;;;;0.55;87.25;96564.97;5076611;28;20512;-85
2021/01/19 04:36:23;;;;;;;5.53;2.50;;;;;;;0.53;86.95;96557.47;5076027;28;20461;-84
2021/01/19 04:38:50;;;;;;;5.67;2.50;;;;;;;0.56;87.08;96547.84;5075404;28;20481;-84
2021/01/19 04:41:17;;;;;;;5.60;2.40;;;;;;;0.53;87.06;96544.19;5076024;28;20560;-84
2021/01/19 04:43:44;;;;;;;3.70;2.10;;;;;;;0.36;87.50;96535.34;5075710;28;20532;-83
2021/01/19 04:46:11;;;;;;;3.97;2.20;;;;;;;0.42;87.32;96530.09;5075758;28;20811;-83
2021/01/19 04:48:37;;;;;;;4.33;2.53;;;;;;;0.57;87.04;96535.28;5075824;28;20449;-84
2021/01/19 04:51:06;;;;;;;6.30;2.50;;;;;;;0.45;87.00;96531.81;5076271;28;20510;-84
2021/01/19 04:53:38;;;;;;;5.90;2.70;;;;;;;0.46;87.67;96518.09;5074829;28;20436;-83
2021/01/19 04:56:14;;;;;;;4.67;2.00;;;;;;;0.44;87.58;96527.69;5075254;28;20560;-83
2021/01/19 04:58:44;;;;;;;4.20;2.40;;;;;;;0.37;87.71;96522.81;5075710;28;20851;-83
2021/01/19 05:01:21;;;;;;;3.43;1.97;;;;;;;0.45;88.25;96521.94;5075556;28;20521;-85
2021/01/19 05:03:57;;;;;;;2.70;1.87;;;;;;;0.57;87.34;96517.44;5076000;28;20429;-83
2021/01/19 05:07:09;;;;;;;4.53;3.07;;;;;;;0.54;87.13;96518.38;5075093;28;20464;-84
2021/01/19 05:09:36;;;;;;;8.20;2.10;;;;;;;0.63;87.17;96509.56;5075769;28;20422;-83
2021/01/19 05:12:04;;;;;;;3.77;2.80;;;;;;;0.56;87.09;96504.66;5075316;28;20434;-84
2021/01/19 05:14:37;;;;;;;2.90;2.60;;;;;;;0.47;87.45;96500.94;5075169;28;20507;-82
2021/01/19 05:17:03;;;;;;;4.00;2.50;;;;;;;0.51;87.13;96496.16;5093051;28;20519;-84
2021/01/19 05:19:30;;;;;;;6.40;3.47;;;;;;;0.54;87.21;96495.22;5077364;28;20507;-84
2021/01/19 05:21:57;;;;;;;3.27;2.50;;;;;;;0.53;86.73;96501.03;5076457;28;20442;-84
2021/01/19 05:24:24;;;;;;;6.13;3.10;;;;;;;0.54;86.54;96486.53;5077241;28;20425;-84
2021/01/19 05:26:52;;;;;;;3.00;2.40;;;;;;;0.69;86.25;96484.47;5077159;28;20454;-83
2021/01/19 05:29:18;;;;;;;8.77;3.30;;;;;;;0.63;85.68;96481.06;5077565;28;20485;-83
2021/01/19 05:31:51;;;;;;;3.37;2.37;;;;;;;0.58;85.75;96483.69;5076792;28;20436;-84
2021/01/19 05:34:17;;;;;;;10.83;3.40;;;;;;;0.46;86.62;96467.66;5076533;28;20430;-83
2021/01/19 05:36:45;;;;;;;5.50;2.83;;;;;;;0.45;86.43;96460.16;5076905;28;20492;-84
2021/01/19 05:39:15;;;;;;;6.30;3.20;;;;;;;0.57;86.40;96447.69;5076658;28;20481;-84
2021/01/19 05:41:44;;;;;;;4.23;3.27;;;;;;;0.50;85.76;96433.66;5076048;28;20440;-84
2021/01/19 05:44:18;;;;;;;6.10;3.47;;;;;;;0.41;86.26;96428.53;5078471;28;20452;-84
2021/01/19 05:47:02;;;;;;;5.03;3.20;;;;;;;0.50;85.76;96427.66;5081053;28;20536;-84
2021/01/19 05:49:31;;;;;;;2.43;2.07;;;;;;;0.48;85.60;96430.03;5079263;28;20510;-84
2021/01/19 05:52:00;;;;;;;4.73;2.93;;;;;;;0.42;86.12;96431.91;5080280;28;20433;-84
2021/01/19 05:54:29;;;;;;;3.03;2.70;;;;;;;0.42;86.22;96429.25;5080645;28;20432;-84
2021/01/19 05:57:07;;;;;;;6.27;2.93;;;;;;;0.34;86.53;96425.59;5080151;28;20449;-84
2021/01/19 05:59:36;;;;;;;3.67;2.93;;;;;;;0.41;86.77;96417.19;5080447;28;20473;-84
2021/01/19 06:02:05;;;;;;;6.07;2.80;;;;;;;0.40;86.43;96416.47;5080357;28;20524;-84
2021/01/19 06:04:42;;;;;;;6.13;2.80;;;;;;;0.31;86.43;96424.59;5080606;28;20456;-84
2021/01/19 06:07:10;;;;;;;6.20;2.67;;;;;;;0.33;86.01;96421.47;5080350;28;20456;-84
2021/01/19 06:09:38;;;;;;;6.90;3.03;;;;;;;0.35;86.55;96414.50;5080983;28;20443;-84
2021/01/19 06:12:06;;;;;;;8.07;3.17;;;;;;;0.26;86.61;96417.31;5080759;28;20495;-84
2021/01/19 06:14:34;;;;;;;3.83;2.60;;;;;;;0.34;86.34;96420.28;5079949;28;20441;-84
2021/01/19 06:17:05;;;;;;;6.70;2.63;;;;;;;0.32;85.88;96410.13;5080393;28;20609;-84
2021/01/19 06:19:32;;;;;;;4.97;2.77;;;;;;;0.35;86.10;96411.84;5081293;28;20853;-84
2021/01/19 06:22:04;;;;;;;4.00;2.43;;;;;;;0.38;85.68;96394.25;5080109;28;20472;-84
2021/01/19 06:24:37;;;;;;;7.70;2.73;;;;;;;0.29;85.53;96397.78;5081236;28;20493;-83
2021/01/19 06:27:06;;;;;;;2.90;2.50;;;;;;;0.26;85.89;96404.03;5080879;28;20454;-84
2021/01/19 06:29:32;;;;;;;11.73;3.77;;;;;;;0.21;86.47;96391.47;5079988;28;20432;-85
2021/01/19 06:32:00;;;;;;;7.70;3.03;;;;;;;0.39;86.65;96401.00;5079281;28;20917;-84
2021/01/19 06:34:28;;;;;;;4.67;2.70;;;;;;;0.54;86.93;96386.41;5080077;28;20441;-85
2021/01/19 06:36:54;;;;;;;4.90;2.77;;;;;;;0.47;85.49;96368.25;5084755;28;20499;-84
2021/01/19 06:39:33;;;;;;;3.80;2.77;;;;;;;0.51;84.74;96383.97;5084247;28;20564;-84
2021/01/19 06:42:06;;;;;;;6.13;3.30;;;;;;;0.50;84.74;96393.16;5079910;28;20702;-85
2021/01/19 06:44:37;;;;;;;6.57;2.80;;;;;;;0.41;84.84;96391.38;5079999;28;20414;-84
2021/01/19 06:47:05;;;;;;;7.27;3.03;;;;;;;0.45;84.70;96388.50;5079992;28;21005;-83
2021/01/19 06:49:36;;;;;;;5.07;2.47;;;;;;;0.50;84.36;96403.75;5079968;28;20452;-85
2021/01/19 06:52:06;;;;;;;5.13;3.33;;;;;;;0.34;84.66;96394.47;5079680;28;20451;-85
2021/01/19 06:54:41;;;;;;;4.87;3.00;;;;;;;0.46;84.74;96389.97;5079801;28;20450;-84
2021/01/19 06:57:29;;;;;;;4.50;2.70;;;;;;;0.35;84.80;96390.59;5081674;28;20465;-83
2021/01/19 07:00:06;;;;;;;12.93;3.27;;;;;;;0.27;85.13;96378.97;5080700;28;20470;-84
2021/01/19 07:02:36;;;;;;;3.77;2.03;;;;;;;0.22;85.39;96378.94;5078871;28;20446;-85
2021/01/19 07:05:09;;;;;;;8.50;3.47;;;;;;;0.15;85.95;96382.00;5090243;28;20410;-86
2021/01/19 07:08:09;;;;;;;5.03;2.63;;;;;;;0.21;85.84;96370.25;5100215;28;20518;-89
2021/01/19 07:10:49;;;;;;;15.50;3.53;;;;;;;0.16;85.60;96370.22;5100047;28;20482;-88
2021/01/19 07:13:22;;;;;;;10.30;3.90;;;;;;;0.08;85.95;96371.81;5099047;28;20528;-88
2021/01/19 07:16:17;;;;;;;6.63;4.47;;;;;;;0.10;86.10;96372.81;5077867;28;20513;-89
2021/01/19 07:19:02;;;;;;;5.90;3.50;;;;;;;0.13;85.87;96371.13;5076652;28;20961;-88
2021/01/19 07:21:51;;;;;;;7.60;3.37;;;;;;;0.14;85.09;96370.66;5074754;28;20533;-89
2021/01/19 07:24:21;;;;;;;8.80;3.60;;;;;;;0.11;85.50;96370.88;5055107;28;20533;-86
2021/01/19 07:26:47;;;;;;;4.50;3.10;;;;;;;0.00;85.86;96369.59;5076346;28;20568;-86
2021/01/19 07:29:18;;;;;;;4.63;2.67;;;;;;;-0.03;86.43;96359.91;5077207;28;20433;-86
2021/01/19 07:31:45;;;;;;;7.47;4.07;;;;;;;0.06;86.32;96353.00;5076872;28;20521;-86
2021/01/19 07:34:13;;;;;;;23.50;4.90;;;;;;;0.04;86.18;96342.84;5077106;28;20794;-85
2021/01/19 07:36:39;;;;;;;6.87;3.67;;;;;;;0.08;85.46;96340.00;5076921;28;20469;-85
2021/01/19 07:39:13;;;;;;;3.87;3.17;;;;;;;0.03;86.24;96338.03;5077131;28;20486;-88
2021/01/19 07:41:39;;;;;;;5.20;3.30;;;;;;;0.13;85.54;96339.31;5078338;28;20503;-88
2021/01/19 07:44:06;;;;;;;12.13;5.03;;;;;;;0.17;85.02;96343.19;5079442;28;20524;-88
2021/01/19 07:46:33;;;;;;;8.80;3.47;;;;;;;0.14;85.94;96341.50;5078293;28;20536;-87
2021/01/19 07:49:01;;;;;;;4.97;3.30;;;;;;;0.15;86.06;96340.31;5077425;28;20434;-87
2021/01/19 07:51:38;;;;;;;8.30;3.57;;;;;;;0.31;85.38;96331.75;5076975;28;20775;-87
2021/01/19 07:54:05;;;;;;;6.10;4.27;;;;;;;0.37;85.30;96334.44;5078631;28;20453;-88
2021/01/19 07:56:33;;;;;;;4.47;3.13;;;;;;;0.46;85.07;96332.31;5079224;28;20449;-87
2021/01/19 07:59:00;;;;;;;6.17;2.97;;;;;;;0.50;85.29;96337.41;5082564;28;20485;-87
2021/01/19 08:01:28;;;;;;;6.33;3.10;;;;;;;0.57;84.57;96331.66;5079067;28;20430;-85
2021/01/19 08:03:55;;;;;;;5.17;3.17;;;;;;;0.79;84.18;96323.81;5080529;28;20520;-86
2021/01/19 08:06:31;;;;;;;5.20;2.90;;;;;;;0.93;82.80;96317.59;5082245;28;20482;-87
2021/01/19 08:09:09;;;;;;;3.97;2.90;;;;;;;0.96;82.62;96313.28;5089253;28;20425;-87
2021/01/19 08:11:35;;;;;;;7.33;2.70;;;;;;;1.02;82.39;96311.34;5091027;28;20406;-86
2021/01/19 08:14:03;;;;;;;5.50;3.00;;;;;;;1.18;81.48;96309.97;5052747;28;708181;-89
2021/01/19 08:16:32;;;;;;;7.40;3.30;;;;;;;1.38;81.65;96299.88;5082846;28;20536;-90
2021/01/19 08:19:08;;;;;;;11.70;4.73;;;;;;;1.46;80.63;96300.88;5083046;28;20469;-87
2021/01/19 08:21:36;;;;;;;11.47;4.90;;;;;;;1.52;79.88;96298.22;5077539;28;20483;-87
2021/01/19 08:24:08;;;;;;;12.83;3.90;;;;;;;1.55;79.97;96291.94;5076375;28;20481;-85
2021/01/19 08:26:35;;;;;;;5.47;3.03;;;;;;;1.51;80.40;96284.19;5076655;28;20464;-86
2021/01/19 08:29:04;;;;;;;7.03;3.30;;;;;;;1.64;79.11;96289.03;5071302;28;20434;-86
2021/01/19 08:31:32;;;;;;;6.33;3.43;;;;;;;1.58;79.18;96296.28;5056654;28;20435;-86
2021/01/19 08:34:02;;;;;;;9.73;3.30;;;;;;;1.63;78.48;96274.28;5056783;28;20449;-85
2021/01/19 08:36:31;;;;;;;8.10;3.03;;;;;;;1.51;78.85;96270.16;5058384;28;20820;-90
2021/01/19 08:38:59;;;;;;;11.63;3.67;;;;;;;1.57;78.80;96263.66;5057564;28;20452;-89
2021/01/19 08:41:27;;;;;;;9.23;4.13;;;;;;;1.67;78.30;96255.44;5057646;28;20450;-89
2021/01/19 08:43:55;;;;;;;6.30;3.70;;;;;;;1.76;78.28;96263.19;5059316;28;20484;-90
2021/01/19 08:46:21;;;;;;;7.63;4.60;;;;;;;1.88;77.30;96262.69;5059119;28;20469;-89
2021/01/19 09:08:59;;;;;;;12.93;4.17;;;;;;;2.16;77.09;96263.41;5836055;22;20845;-85
2021/01/19 09:11:31;;;;;;;4.30;3.30;;;;;;;2.20;77.21;96260.50;5034103;28;20540;-86
2021/01/19 09:14:02;;;;;;;6.20;3.97;;;;;;;2.38;75.57;96267.25;5041803;28;20438;-82
2021/01/19 09:16:31;;;;;;;10.17;3.80;;;;;;;2.29;76.54;96256.88;5048102;28;20895;-84
2021/01/19 09:19:00;;;;;;;5.80;3.73;;;;;;;2.37;76.87;96257.81;5036490;28;20541;-89
2021/01/19 09:21:27;;;;;;;8.80;4.47;;;;;;;2.27;76.99;96265.34;5038123;28;20483;-89
2021/01/19 09:23:54;;;;;;;6.80;3.40;;;;;;;2.18;77.35;96273.56;5038790;28;20584;-89
2021/01/19 09:26:22;;;;;;;8.43;4.17;;;;;;;2.21;76.62;96258.56;5037881;28;20850;-88
2021/01/19 09:28:49;;;;;;;7.20;4.37;;;;;;;2.25;77.28;96254.47;5020407;28;20445;-90
2021/01/19 09:31:18;;;;;;;6.33;3.67;;;;;;;2.43;76.23;96247.88;5020381;28;20466;-88
2021/01/19 09:33:46;;;;;;;4.63;3.20;;;;;;;2.25;76.42;96241.16;5020166;28;20460;-88
2021/01/19 09:36:13;;;;;;;7.17;3.90;;;;;;;2.17;77.42;96238.25;5019378;28;20432;-87
2021/01/19 09:38:41;;;;;;;14.43;4.10;;;;;;;2.02;78.01;96232.47;5017561;28;20523;-88
2021/01/19 09:41:08;;;;;;;10.00;4.03;;;;;;;2.32;77.50;96237.25;5017790;28;20531;-89
2021/01/19 09:43:36;;;;;;;5.27;3.77;;;;;;;2.17;77.85;96227.59;5022704;28;21027;-90
2021/01/19 09:46:05;;;;;;;10.00;4.93;;;;;;;2.34;77.46;96202.88;5039580;28;20432;-89
2021/01/19 09:48:34;;;;;;;6.07;3.80;;;;;;;2.32;78.09;96206.03;5037785;28;20466;-89
2021/01/19 09:51:03;;;;;;;9.53;4.77;;;;;;;2.45;77.45;96208.16;5037837;28;20476;-87
2021/01/19 09:53:32;;;;;;;6.03;3.93;;;;;;;2.27;78.14;96200.72;5037565;28;20458;-87
2021/01/19 09:56:00;;;;;;;8.97;3.40;;;;;;;2.43;77.40;96195.34;5040140;28;20864;-89
2021/01/19 09:58:28;;;;;;;13.90;5.47;;;;;;;2.50;77.34;96191.47;5039504;28;20505;-88
2021/01/19 10:00:56;;;;;;;10.97;4.10;;;;;;;2.49;77.64;96182.75;5038854;28;20835;-90
2021/01/19 10:03:27;;;;;;;8.33;4.90;;;;;;;2.53;77.84;96177.16;5038689;28;20852;-89
2021/01/19 10:06:05;;;;;;;7.70;5.03;;;;;;;2.62;78.09;96174.22;5040461;28;20466;-90
2021/01/19 10:08:33;;;;;;;7.67;3.77;;;;;;;2.73;77.63;96168.84;5040322;28;20498;-89
2021/01/19 10:10:59;;;;;;;8.13;4.00;;;;;;;2.76;77.79;96159.16;5036926;28;20475;-88
2021/01/19 10:13:29;;;;;;;6.30;3.97;;;;;;;2.80;77.79;96157.66;5035988;28;20451;-90
2021/01/19 10:16:01;;;;;;;11.03;5.10;;;;;;;2.81;77.89;96156.47;5036304;28;20447;-90
2021/01/19 10:18:28;;;;;;;6.23;3.00;;;;;;;2.88;77.46;96139.22;5037133;28;20447;-88
2021/01/19 10:20:54;;;;;;;8.57;3.10;;;;;;;2.82;77.78;96136.56;5036918;28;20459;-90
2021/01/19 10:23:28;;;;;;;15.33;4.03;;;;;;;2.86;77.33;96137.03;5036778;28;20799;-90
2021/01/19 10:26:07;;;;;;;5.93;3.03;;;;;;;2.98;77.50;96129.69;5036562;28;20482;-90
2021/01/19 10:28:40;;;;;;;6.10;3.80;;;;;;;3.03;77.63;96131.63;5039578;28;20434;-88
2021/01/19 10:31:18;;;;;;;6.90;3.43;;;;;;;2.94;77.73;96122.00;5038075;28;20524;-87
2021/01/19 10:34:00;;;;;;;5.10;2.90;;;;;;;3.00;77.66;96121.94;5039709;28;20904;-86
2021/01/19 10:36:27;;;;;;;5.70;3.50;;;;;;;3.03;77.59;96116.34;5039156;28;20435;-87
2021/01/19 10:38:55;;;;;;;7.30;3.40;;;;;;;3.02;77.26;96109.56;5038784;28;20555;-87
2021/01/19 10:41:25;;;;;;;7.60;2.63;;;;;;;2.95;77.87;96107.44;5038328;28;20432;-87
2021/01/19 10:43:53;;;;;;;9.60;3.60;;;;;;;2.97;77.78;96099.69;5038877;28;20533;-86
2021/01/19 10:46:26;;;;;;;8.50;3.53;;;;;;;3.01;77.78;96102.78;5038252;28;20497;-86
2021/01/19 10:49:06;;;;;;;6.27;3.07;;;;;;;3.03;77.80;96097.69;5040351;28;20458;-86
2021/01/19 10:51:33;;;;;;;9.23;3.70;;;;;;;3.07;77.27;96090.16;5037457;28;20444;-86
2021/01/19 10:54:08;;;;;;;5.40;3.07;;;;;;;3.08;77.43;96090.88;5039124;28;20538;-87
2021/01/19 10:56:34;;;;;;;6.63;2.87;;;;;;;3.06;77.46;96072.72;5040102;28;20430;-87
2021/01/19 10:59:01;;;;;;;8.93;4.03;;;;;;;3.09;77.70;96071.72;5040152;28;20506;-89
2021/01/19 11:01:28;;;;;;;5.67;3.00;;;;;;;3.13;77.31;96080.16;5039997;28;20450;-89
2021/01/19 11:03:55;;;;;;;17.57;3.97;;;;;;;3.09;77.85;96073.66;5040550;28;20479;-89
2021/01/19 11:06:29;;;;;;;10.53;3.10;;;;;;;3.19;77.81;96064.88;5052819;28;20436;-90
2021/01/19 11:08:56;;;;;;;9.40;3.03;;;;;;;3.30;76.81;96057.97;5044397;28;20424;-88
2021/01/19 11:11:22;;;;;;;8.50;3.20;;;;;;;3.28;76.53;96052.44;5046165;28;20455;-90
2021/01/19 11:13:49;;;;;;;5.57;3.70;;;;;;;3.29;76.77;96040.56;5046357;28;20458;-91
2021/01/19 11:16:15;;;;;;;11.33;3.60;;;;;;;3.32;76.71;96034.22;5046742;28;20466;-89
2021/01/19 11:19:05;;;;;;;5.60;3.70;;;;;;;3.31;76.29;96028.16;5057135;28;20475;-90
2021/01/19 11:21:32;;;;;;;11.17;5.97;;;;;;;3.42;76.10;96012.03;5058436;28;20427;-90
2021/01/19 11:23:58;;;;;;;7.43;3.60;;;;;;;3.37;75.83;96004.84;5058176;28;20461;-90
2021/01/19 11:26:25;;;;;;;11.30;3.20;;;;;;;3.48;75.19;96014.66;5049656;28;20432;-88
2021/01/19 11:28:54;;;;;;;5.63;2.97;;;;;;;3.46;75.03;96001.81;5059525;28;20538;-89
2021/01/19 11:31:22;;;;;;;4.47;3.20;;;;;;;3.43;74.93;95999.44;5059602;28;20419;-86
2021/01/19 11:33:48;;;;;;;6.47;3.30;;;;;;;3.33;74.73;95993.72;5052502;28;20483;-87
2021/01/19 11:36:24;;;;;;;4.97;3.00;;;;;;;3.42;75.20;96001.38;5047987;28;20438;-89
2021/01/19 11:38:50;;;;;;;8.67;3.90;;;;;;;3.48;74.79;95995.97;5043109;28;20486;-87
2021/01/19 11:41:19;;;;;;;5.97;3.07;;;;;;;3.51;74.79;95995.69;5041561;28;20467;-89
2021/01/19 11:43:45;;;;;;;6.10;3.43;;;;;;;3.57;74.18;96003.66;5042863;28;20428;-88
2021/01/19 11:46:12;;;;;;;6.10;3.13;;;;;;;3.49;74.22;96003.50;5046511;28;20451;-90
2021/01/19 11:48:39;;;;;;;6.10;3.63;;;;;;;3.52;74.36;96004.44;5044597;28;20458;-88
2021/01/19 11:51:06;;;;;;;5.33;3.50;;;;;;;3.63;74.36;96001.66;5042953;28;20462;-88
2021/01/19 11:53:33;;;;;;;7.80;3.03;;;;;;;3.54;73.92;96002.00;5042804;28;20455;-87
2021/01/19 11:56:02;;;;;;;4.10;2.90;;;;;;;3.59;74.54;95999.28;5043115;28;20542;-87
2021/01/19 11:58:29;;;;;;;4.23;3.10;;;;;;;3.60;74.92;95992.69;5053728;28;20502;-85
2021/01/19 12:00:55;;;;;;;8.00;3.53;;;;;;;3.63;74.71;95993.66;5055202;28;20990;-88
2021/01/19 12:03:22;;;;;;;4.37;2.70;;;;;;;3.67;73.82;95983.41;5038066;28;20931;-88
2021/01/19 12:05:48;;;;;;;8.93;3.30;;;;;;;3.76;74.26;95991.06;5039121;28;20521;-88
2021/01/19 12:08:15;;;;;;;5.00;2.90;;;;;;;3.72;73.99;95978.03;5039826;28;20459;-89
2021/01/19 12:10:44;;;;;;;5.53;3.23;;;;;;;3.71;74.07;95962.50;5040356;28;20514;-87
2021/01/19 12:13:13;;;;;;;4.17;2.80;;;;;;;3.67;74.59;95973.47;5039733;28;20803;-87
2021/01/19 12:15:42;;;;;;;6.03;3.60;;;;;;;3.73;74.44;95966.13;5039726;28;20759;-89
2021/01/19 12:18:09;;;;;;;6.07;3.10;;;;;;;3.68;74.57;95964.25;5038772;28;20454;-87
2021/01/19 12:20:35;;;;;;;4.77;2.63;;;;;;;3.82;74.10;95961.66;5037140;28;20487;-89
2021/01/19 12:23:01;;;;;;;8.90;3.20;;;;;;;3.81;74.43;95970.88;5036539;28;20876;-89
2021/01/19 12:25:29;;;;;;;7.67;3.33;;;;;;;3.85;74.44;95949.97;5040692;28;20893;-87
2021/01/19 12:27:56;;;;;;;4.03;2.90;;;;;;;4.00;73.72;95950.25;5036366;28;20448;-85
2021/01/19 12:30:23;;;;;;;7.07;3.10;;;;;;;3.98;73.45;95942.03;5036540;28;20459;-87